sensor_id;sensor_type;location;lat;lon;timestamp;pressure;altitude;pressure_sealevel;temperature;humidity
32873;BME280;19224;52.462;16.898;2022-10-30T00:00:57;100706.91;;;14.58;100.00
32873;BME280;19224;52.462;16.898;2022-10-30T00:03:28;100705.05;;;14.67;100.00
32873;BME280;19224;52.462;16.898;2022-10-30T00:06:02;100714.83;;;14.69;100.00
32873;BME280;19224;52.462;16.898;2022-10-30T00:08:34;100705.27;;;14.71;100.00
32873;BME280;19224;52.462;16.898;2022-10-30T00:11:08;100705.48;;;14.75;100.00
32873;BME280;19224;52.462;16.898;2022-10-30T00:13:42;100709.09;;;14.75;100.00
32873;BME280;19224;52.462;16.898;2022-10-30T00:16:15;100709.80;;;14.79;100.00
32873;BME280;19224;52.462;16.898;2022-10-30T00:19:04;100704.38;;;14.79;100.00
32873;BME280;19224;52.462;16.898;2022-10-30T00:21:29;100697.52;;;14.72;100.00
32873;BME280;19224;52.462;16.898;2022-10-30T00:24:03;100688.50;;;14.71;100.00
32873;BME280;19224;52.462;16.898;2022-10-30T00:26:32;100682.83;;;14.76;100.00
32873;BME280;19224;52.462;16.898;2022-10-30T00:29:02;100684.57;;;14.77;100.00
32873;BME280;19224;52.462;16.898;2022-10-30T00:31:32;100687.46;;;14.74;100.00
32873;BME280;19224;52.462;16.898;2022-10-30T00:34:05;100687.07;;;14.73;100.00
32873;BME280;19224;52.462;16.898;2022-10-30T00:36:36;100690.35;;;14.71;100.00
32873;BME280;19224;52.462;16.898;2022-10-30T00:39:21;100690.92;;;14.69;100.00
32873;BME280;19224;52.462;16.898;2022-10-30T00:41:48;100693.00;;;14.64;100.00
32873;BME280;19224;52.462;16.898;2022-10-30T00:50:15;100678.48;;;14.65;100.00
32873;BME280;19224;52.462;16.898;2022-10-30T00:53:09;100671.70;;;14.65;100.00
32873;BME280;19224;52.462;16.898;2022-10-30T00:55:45;100676.27;;;14.64;100.00
32873;BME280;19224;52.462;16.898;2022-10-30T00:58:27;100666.77;;;14.64;100.00
32873;BME280;19224;52.462;16.898;2022-10-30T01:00:59;100671.23;;;14.65;100.00
32873;BME280;19224;52.462;16.898;2022-10-30T01:03:33;100668.98;;;14.65;100.00
32873;BME280;19224;52.462;16.898;2022-10-30T01:06:05;100667.09;;;14.67;100.00
32873;BME280;19224;52.462;16.898;2022-10-30T01:08:37;100668.34;;;14.68;100.00
32873;BME280;19224;52.462;16.898;2022-10-30T01:11:08;100662.60;;;14.66;100.00
32873;BME280;19224;52.462;16.898;2022-10-30T01:13:40;100654.25;;;14.62;100.00
32873;BME280;19224;52.462;16.898;2022-10-30T01:34:50;100611.11;;;14.42;100.00
32873;BME280;19224;52.462;16.898;2022-10-30T01:37:24;100616.23;;;14.40;100.00
32873;BME280;19224;52.462;16.898;2022-10-30T01:39:55;100618.27;;;14.43;100.00
32873;BME280;19224;52.462;16.898;2022-10-30T01:42:52;100627.44;;;14.49;100.00
32873;BME280;19224;52.462;16.898;2022-10-30T01:45:42;100630.33;;;14.46;100.00
32873;BME280;19224;52.462;16.898;2022-10-30T01:48:51;100642.27;;;14.42;100.00
32873;BME280;19224;52.462;16.898;2022-10-30T01:55:28;100649.67;;;14.23;100.00
32873;BME280;19224;52.462;16.898;2022-10-30T02:00:10;100650.37;;;14.10;100.00
32873;BME280;19224;52.462;16.898;2022-10-30T02:02:42;100651.95;;;14.14;100.00
32873;BME280;19224;52.462;16.898;2022-10-30T02:08:06;100659.77;;;14.28;100.00
32873;BME280;19224;52.462;16.898;2022-10-30T02:10:38;100649.50;;;14.26;100.00
32873;BME280;19224;52.462;16.898;2022-10-30T02:13:10;100648.86;;;14.21;100.00
32873;BME280;19224;52.462;16.898;2022-10-30T02:15:44;100646.86;;;14.16;100.00
32873;BME280;19224;52.462;16.898;2022-10-30T02:18:21;100650.70;;;14.12;100.00
32873;BME280;19224;52.462;16.898;2022-10-30T02:20:54;100654.27;;;14.13;100.00
32873;BME280;19224;52.462;16.898;2022-10-30T02:23:20;100643.53;;;14.11;100.00
32873;BME280;19224;52.462;16.898;2022-10-30T02:25:51;100646.38;;;14.08;100.00
32873;BME280;19224;52.462;16.898;2022-10-30T02:28:21;100653.26;;;14.07;100.00
32873;BME280;19224;52.462;16.898;2022-10-30T02:30:51;100649.66;;;14.06;100.00
32873;BME280;19224;52.462;16.898;2022-10-30T02:33:22;100649.59;;;14.08;100.00
32873;BME280;19224;52.462;16.898;2022-10-30T02:35:55;100649.88;;;14.10;100.00
32873;BME280;19224;52.462;16.898;2022-10-30T02:38:26;100645.59;;;14.06;100.00
32873;BME280;19224;52.462;16.898;2022-10-30T02:40:58;100653.39;;;14.04;100.00
32873;BME280;19224;52.462;16.898;2022-10-30T02:43:28;100646.01;;;13.99;100.00
32873;BME280;19224;52.462;16.898;2022-10-30T02:46:03;100658.44;;;13.94;100.00
32873;BME280;19224;52.462;16.898;2022-10-30T02:48:38;100667.45;;;13.95;100.00
32873;BME280;19224;52.462;16.898;2022-10-30T02:51:09;100666.73;;;13.91;100.00
32873;BME280;19224;52.462;16.898;2022-10-30T02:53:45;100658.91;;;13.85;100.00
32873;BME280;19224;52.462;16.898;2022-10-30T02:56:16;100660.11;;;13.80;100.00
32873;BME280;19224;52.462;16.898;2022-10-30T02:58:48;100655.72;;;13.77;100.00
32873;BME280;19224;52.462;16.898;2022-10-30T03:01:19;100647.77;;;13.74;100.00
32873;BME280;19224;52.462;16.898;2022-10-30T03:03:51;100652.32;;;13.74;100.00
32873;BME280;19224;52.462;16.898;2022-10-30T03:06:21;100657.41;;;13.71;100.00
32873;BME280;19224;52.462;16.898;2022-10-30T03:08:51;100664.57;;;13.64;100.00
32873;BME280;19224;52.462;16.898;2022-10-30T03:11:29;100661.44;;;13.54;100.00
32873;BME280;19224;52.462;16.898;2022-10-30T03:14:05;100655.62;;;13.53;100.00
32873;BME280;19224;52.462;16.898;2022-10-30T03:16:36;100650.22;;;13.53;100.00
32873;BME280;19224;52.462;16.898;2022-10-30T03:19:10;100644.28;;;13.55;100.00
32873;BME280;19224;52.462;16.898;2022-10-30T03:21:43;100645.30;;;13.53;100.00
32873;BME280;19224;52.462;16.898;2022-10-30T03:24:13;100641.31;;;13.51;100.00
32873;BME280;19224;52.462;16.898;2022-10-30T03:26:47;100647.37;;;13.56;100.00
32873;BME280;19224;52.462;16.898;2022-10-30T03:29:17;100643.45;;;13.53;100.00
32873;BME280;19224;52.462;16.898;2022-10-30T03:31:47;100643.39;;;13.46;100.00
32873;BME280;19224;52.462;16.898;2022-10-30T03:34:19;100638.94;;;13.45;100.00
32873;BME280;19224;52.462;16.898;2022-10-30T03:36:59;100630.48;;;13.43;100.00
32873;BME280;19224;52.462;16.898;2022-10-30T03:39:26;100632.63;;;13.36;100.00
32873;BME280;19224;52.462;16.898;2022-10-30T03:41:57;100642.42;;;13.39;100.00
32873;BME280;19224;52.462;16.898;2022-10-30T03:44:29;100651.41;;;13.39;100.00
32873;BME280;19224;52.462;16.898;2022-10-30T03:46:59;100648.86;;;13.36;100.00
32873;BME280;19224;52.462;16.898;2022-10-30T03:49:32;100648.86;;;13.36;100.00
32873;BME280;19224;52.462;16.898;2022-10-30T03:52:02;100657.60;;;13.33;100.00
32873;BME280;19224;52.462;16.898;2022-10-30T03:54:36;100651.73;;;13.33;100.00
32873;BME280;19224;52.462;16.898;2022-10-30T03:57:07;100648.53;;;13.34;100.00
32873;BME280;19224;52.462;16.898;2022-10-30T03:59:37;100638.89;;;13.37;100.00
32873;BME280;19224;52.462;16.898;2022-10-30T04:02:07;100637.71;;;13.42;100.00
32873;BME280;19224;52.462;16.898;2022-10-30T04:04:45;100635.17;;;13.48;100.00
32873;BME280;19224;52.462;16.898;2022-10-30T04:07:20;100634.15;;;13.50;100.00
32873;BME280;19224;52.462;16.898;2022-10-30T04:09:51;100637.64;;;13.52;100.00
32873;BME280;19224;52.462;16.898;2022-10-30T04:12:23;100639.66;;;13.57;100.00
32873;BME280;19224;52.462;16.898;2022-10-30T04:14:53;100640.77;;;13.62;100.00
32873;BME280;19224;52.462;16.898;2022-10-30T04:17:24;100645.36;;;13.60;100.00
32873;BME280;19224;52.462;16.898;2022-10-30T04:19:56;100650.09;;;13.56;100.00
32873;BME280;19224;52.462;16.898;2022-10-30T04:22:27;100659.62;;;13.55;100.00
32873;BME280;19224;52.462;16.898;2022-10-30T04:24:57;100652.13;;;13.51;100.00
32873;BME280;19224;52.462;16.898;2022-10-30T04:27:29;100649.59;;;13.48;100.00
32873;BME280;19224;52.462;16.898;2022-10-30T04:30:05;100640.41;;;13.42;100.00
32873;BME280;19224;52.462;16.898;2022-10-30T04:32:58;100636.13;;;13.38;100.00
32873;BME280;19224;52.462;16.898;2022-10-30T04:35:10;100630.55;;;13.41;100.00
32873;BME280;19224;52.462;16.898;2022-10-30T04:37:41;100629.46;;;13.45;100.00
32873;BME280;19224;52.462;16.898;2022-10-30T04:40:12;100629.92;;;13.53;100.00
32873;BME280;19224;52.462;16.898;2022-10-30T04:42:47;100630.81;;;13.54;100.00
32873;BME280;19224;52.462;16.898;2022-10-30T04:45:18;100633.34;;;13.57;100.00
32873;BME280;19224;52.462;16.898;2022-10-30T04:48:04;100630.19;;;13.57;100.00
32873;BME280;19224;52.462;16.898;2022-10-30T04:50:35;100633.61;;;13.61;100.00
32873;BME280;19224;52.462;16.898;2022-10-30T04:53:13;100639.48;;;13.60;100.00
32873;BME280;19224;52.462;16.898;2022-10-30T04:55:42;100631.93;;;13.58;100.00
32873;BME280;19224;52.462;16.898;2022-10-30T04:58:13;100631.77;;;13.61;100.00
32873;BME280;19224;52.462;16.898;2022-10-30T05:00:43;100632.49;;;13.56;100.00
32873;BME280;19224;52.462;16.898;2022-10-30T05:03:22;100637.81;;;13.58;100.00
32873;BME280;19224;52.462;16.898;2022-10-30T05:06:12;100640.22;;;13.55;100.00
32873;BME280;19224;52.462;16.898;2022-10-30T05:08:41;100641.64;;;13.54;100.00
32873;BME280;19224;52.462;16.898;2022-10-30T05:11:13;100640.75;;;13.53;100.00
32873;BME280;19224;52.462;16.898;2022-10-30T05:13:46;100649.03;;;13.50;100.00
32873;BME280;19224;52.462;16.898;2022-10-30T05:16:21;100641.14;;;13.46;100.00
32873;BME280;19224;52.462;16.898;2022-10-30T05:18:51;100643.45;;;13.45;100.00
32873;BME280;19224;52.462;16.898;2022-10-30T05:21:21;100642.16;;;13.43;100.00
32873;BME280;19224;52.462;16.898;2022-10-30T05:23:53;100651.97;;;13.46;100.00
32873;BME280;19224;52.462;16.898;2022-10-30T05:26:23;100647.34;;;13.48;100.00
32873;BME280;19224;52.462;16.898;2022-10-30T05:28:59;100638.83;;;13.47;100.00
32873;BME280;19224;52.462;16.898;2022-10-30T05:31:27;100637.98;;;13.46;100.00
32873;BME280;19224;52.462;16.898;2022-10-30T05:33:59;100635.67;;;13.47;100.00
32873;BME280;19224;52.462;16.898;2022-10-30T05:36:32;100631.21;;;13.46;100.00
32873;BME280;19224;52.462;16.898;2022-10-30T05:39:06;100640.41;;;13.42;100.00
32873;BME280;19224;52.462;16.898;2022-10-30T05:41:37;100640.02;;;13.41;100.00
32873;BME280;19224;52.462;16.898;2022-10-30T05:44:07;100647.74;;;13.40;100.00
32873;BME280;19224;52.462;16.898;2022-10-30T05:46:37;100642.16;;;13.43;100.00
32873;BME280;19224;52.462;16.898;2022-10-30T05:49:08;100639.89;;;13.44;100.00
32873;BME280;19224;52.462;16.898;2022-10-30T05:51:39;100642.03;;;13.46;100.00
32873;BME280;19224;52.462;16.898;2022-10-30T05:54:13;100651.41;;;13.48;100.00
32873;BME280;19224;52.462;16.898;2022-10-30T05:56:45;100652.53;;;13.52;100.00
32873;BME280;19224;52.462;16.898;2022-10-30T05:59:15;100650.61;;;13.54;100.00
32873;BME280;19224;52.462;16.898;2022-10-30T06:01:50;100651.50;;;13.55;100.00
32873;BME280;19224;52.462;16.898;2022-10-30T06:04:20;100657.25;;;13.57;100.00
32873;BME280;19224;52.462;16.898;2022-10-30T06:06:50;100664.31;;;13.60;100.00
32873;BME280;19224;52.462;16.898;2022-10-30T06:09:25;100656.75;;;13.58;100.00
32873;BME280;19224;52.462;16.898;2022-10-30T06:11:58;100658.89;;;13.60;100.00
32873;BME280;19224;52.462;16.898;2022-10-30T06:14:30;100658.27;;;13.63;100.00
32873;BME280;19224;52.462;16.898;2022-10-30T06:17:01;100659.78;;;13.69;100.00
32873;BME280;19224;52.462;16.898;2022-10-30T06:19:31;100666.38;;;13.72;100.00
32873;BME280;19224;52.462;16.898;2022-10-30T06:22:02;100667.90;;;13.77;100.00
32873;BME280;19224;52.462;16.898;2022-10-30T06:24:38;100659.54;;;13.82;100.00
32873;BME280;19224;52.462;16.898;2022-10-30T06:27:08;100659.70;;;13.87;100.00
32873;BME280;19224;52.462;16.898;2022-10-30T06:29:38;100660.91;;;13.90;100.00
32873;BME280;19224;52.462;16.898;2022-10-30T06:32:09;100658.60;;;13.91;100.00
32873;BME280;19224;52.462;16.898;2022-10-30T06:34:40;100666.95;;;13.95;100.00
32873;BME280;19224;52.462;16.898;2022-10-30T06:37:14;100667.04;;;14.02;100.00
32873;BME280;19224;52.462;16.898;2022-10-30T06:39:45;100662.19;;;14.00;100.00
32873;BME280;19224;52.462;16.898;2022-10-30T06:42:18;100668.62;;;14.06;100.00
32873;BME280;19224;52.462;16.898;2022-10-30T06:44:53;100673.80;;;14.11;100.00
32873;BME280;19224;52.462;16.898;2022-10-30T06:47:23;100680.89;;;14.13;100.00
32873;BME280;19224;52.462;16.898;2022-10-30T06:49:53;100685.34;;;14.14;100.00
32873;BME280;19224;52.462;16.898;2022-10-30T06:52:23;100688.05;;;14.14;100.00
32873;BME280;19224;52.462;16.898;2022-10-30T06:54:54;100679.72;;;14.19;100.00
32873;BME280;19224;52.462;16.898;2022-10-30T06:57:31;100674.13;;;14.22;100.00
32873;BME280;19224;52.462;16.898;2022-10-30T06:59:58;100667.82;;;14.21;100.00
32873;BME280;19224;52.462;16.898;2022-10-30T07:02:29;100677.30;;;14.21;100.00
32873;BME280;19224;52.462;16.898;2022-10-30T07:05:04;100673.23;;;14.21;100.00
32873;BME280;19224;52.462;16.898;2022-10-30T07:07:33;100677.73;;;14.22;100.00
32873;BME280;19224;52.462;16.898;2022-10-30T07:10:07;100676.20;;;14.25;100.00
32873;BME280;19224;52.462;16.898;2022-10-30T07:12:55;100672.36;;;14.29;100.00
32873;BME280;19224;52.462;16.898;2022-10-30T07:15:23;100675.33;;;14.33;100.00
32873;BME280;19224;52.462;16.898;2022-10-30T07:20:43;100677.41;;;14.52;100.00
32873;BME280;19224;52.462;16.898;2022-10-30T07:23:35;100672.84;;;14.61;100.00
32873;BME280;19224;52.462;16.898;2022-10-30T07:26:14;100669.45;;;14.73;100.00
32873;BME280;19224;52.462;16.898;2022-10-30T07:28:48;100674.42;;;14.89;100.00
32873;BME280;19224;52.462;16.898;2022-10-30T07:31:20;100680.52;;;15.01;100.00
32873;BME280;19224;52.462;16.898;2022-10-30T07:33:50;100697.92;;;15.12;100.00
32873;BME280;19224;52.462;16.898;2022-10-30T07:36:21;100691.31;;;15.25;100.00
32873;BME280;19224;52.462;16.898;2022-10-30T07:38:52;100697.77;;;15.31;100.00
32873;BME280;19224;52.462;16.898;2022-10-30T07:41:22;100702.67;;;15.40;100.00
32873;BME280;19224;52.462;16.898;2022-10-30T07:43:55;100693.17;;;15.40;100.00
32873;BME280;19224;52.462;16.898;2022-10-30T07:46:25;100697.24;;;15.40;100.00
32873;BME280;19224;52.462;16.898;2022-10-30T07:48:56;100697.45;;;15.44;100.00
32873;BME280;19224;52.462;16.898;2022-10-30T07:51:28;100696.90;;;15.46;100.00
32873;BME280;19224;52.462;16.898;2022-10-30T07:54:00;100695.56;;;15.53;100.00
32873;BME280;19224;52.462;16.898;2022-10-30T07:56:33;100699.09;;;15.62;100.00
32873;BME280;19224;52.462;16.898;2022-10-30T07:59:03;100697.16;;;15.64;100.00
32873;BME280;19224;52.462;16.898;2022-10-30T08:01:35;100689.25;;;15.68;100.00
32873;BME280;19224;52.462;16.898;2022-10-30T08:04:05;100692.08;;;15.73;100.00
32873;BME280;19224;52.462;16.898;2022-10-30T08:06:38;100693.05;;;15.79;100.00
32873;BME280;19224;52.462;16.898;2022-10-30T08:09:09;100691.11;;;15.74;100.00
32873;BME280;19224;52.462;16.898;2022-10-30T08:11:39;100689.98;;;15.85;100.00
32873;BME280;19224;52.462;16.898;2022-10-30T08:14:10;100688.94;;;15.95;100.00
32873;BME280;19224;52.462;16.898;2022-10-30T08:16:41;100686.06;;;16.05;100.00
32873;BME280;19224;52.462;16.898;2022-10-30T08:19:16;100682.20;;;16.16;100.00
32873;BME280;19224;52.462;16.898;2022-10-30T08:21:46;100685.52;;;16.28;100.00
32873;BME280;19224;52.462;16.898;2022-10-30T08:24:19;100681.69;;;16.39;100.00
32873;BME280;19224;52.462;16.898;2022-10-30T08:26:53;100681.98;;;16.48;100.00
32873;BME280;19224;52.462;16.898;2022-10-30T08:29:28;100682.86;;;16.49;100.00
32873;BME280;19224;52.462;16.898;2022-10-30T08:31:55;100676.84;;;16.51;100.00
32873;BME280;19224;52.462;16.898;2022-10-30T08:34:26;100672.00;;;16.56;100.00
32873;BME280;19224;52.462;16.898;2022-10-30T08:37:13;100670.53;;;16.64;100.00
32873;BME280;19224;52.462;16.898;2022-10-30T08:39:51;100671.98;;;16.63;100.00
32873;BME280;19224;52.462;16.898;2022-10-30T08:42:22;100666.45;;;16.64;100.00
32873;BME280;19224;52.462;16.898;2022-10-30T08:44:55;100667.50;;;16.76;100.00
32873;BME280;19224;52.462;16.898;2022-10-30T08:47:30;100674.13;;;16.79;100.00
32873;BME280;19224;52.462;16.898;2022-10-30T08:50:05;100679.84;;;16.81;100.00
32873;BME280;19224;52.462;16.898;2022-10-30T08:52:38;100680.34;;;16.81;100.00
32873;BME280;19224;52.462;16.898;2022-10-30T08:55:15;100674.02;;;16.87;100.00
32873;BME280;19224;52.462;16.898;2022-10-30T08:57:50;100665.27;;;16.89;100.00
32873;BME280;19224;52.462;16.898;2022-10-30T09:00:23;100675.68;;;16.90;100.00
32873;BME280;19224;52.462;16.898;2022-10-30T09:02:57;100674.49;;;16.93;100.00
32873;BME280;19224;52.462;16.898;2022-10-30T09:05:31;100677.98;;;16.95;100.00
32873;BME280;19224;52.462;16.898;2022-10-30T09:08:02;100682.45;;;16.96;100.00
32873;BME280;19224;52.462;16.898;2022-10-30T09:10:33;100684.02;;;17.00;100.00
32873;BME280;19224;52.462;16.898;2022-10-30T09:13:04;100686.92;;;17.04;100.00
32873;BME280;19224;52.462;16.898;2022-10-30T09:15:35;100684.11;;;17.06;100.00
32873;BME280;19224;52.462;16.898;2022-10-30T09:18:08;100684.37;;;17.08;100.00
32873;BME280;19224;52.462;16.898;2022-10-30T09:20:38;100677.19;;;17.14;100.00
32873;BME280;19224;52.462;16.898;2022-10-30T09:23:08;100684.67;;;17.18;100.00
32873;BME280;19224;52.462;16.898;2022-10-30T09:25:39;100686.88;;;17.25;100.00
32873;BME280;19224;52.462;16.898;2022-10-30T09:28:11;100688.80;;;17.30;100.00
32873;BME280;19224;52.462;16.898;2022-10-30T09:30:44;100691.94;;;17.38;100.00
32873;BME280;19224;52.462;16.898;2022-10-30T09:33:17;100682.39;;;17.45;100.00
32873;BME280;19224;52.462;16.898;2022-10-30T09:35:52;100680.20;;;17.57;100.00
32873;BME280;19224;52.462;16.898;2022-10-30T09:38:24;100675.69;;;17.63;100.00
32873;BME280;19224;52.462;16.898;2022-10-30T09:46:50;100674.62;;;17.85;100.00
32873;BME280;19224;52.462;16.898;2022-10-30T09:52:27;100669.66;;;18.04;100.00
32873;BME280;19224;52.462;16.898;2022-10-30T10:00:55;100660.47;;;18.12;100.00
32873;BME280;19224;52.462;16.898;2022-10-30T10:06:44;100656.88;;;18.24;100.00
32873;BME280;19224;52.462;16.898;2022-10-30T10:09:22;100651.83;;;18.18;100.00
32873;BME280;19224;52.462;16.898;2022-10-30T10:12:13;100653.48;;;18.21;100.00
32873;BME280;19224;52.462;16.898;2022-10-30T10:14:45;100655.98;;;18.31;100.00
32873;BME280;19224;52.462;16.898;2022-10-30T10:17:30;100653.47;;;18.40;100.00
32873;BME280;19224;52.462;16.898;2022-10-30T10:20:03;100642.55;;;18.40;100.00
32873;BME280;19224;52.462;16.898;2022-10-30T10:22:50;100634.24;;;18.54;100.00
32873;BME280;19224;52.462;16.898;2022-10-30T10:25:19;100625.41;;;18.63;100.00
32873;BME280;19224;52.462;16.898;2022-10-30T10:30:54;100622.46;;;18.97;100.00
32873;BME280;19224;52.462;16.898;2022-10-30T10:36:45;100618.75;;;19.34;100.00
32873;BME280;19224;52.462;16.898;2022-10-30T10:39:45;100613.08;;;19.42;100.00
32873;BME280;19224;52.462;16.898;2022-10-30T10:42:39;100612.95;;;19.61;100.00
32873;BME280;19224;52.462;16.898;2022-10-30T10:51:07;100600.75;;;19.89;100.00
32873;BME280;19224;52.462;16.898;2022-10-30T10:53:56;100596.77;;;19.93;100.00
32873;BME280;19224;52.462;16.898;2022-10-30T10:56:38;100590.67;;;19.95;100.00
32873;BME280;19224;52.462;16.898;2022-10-30T10:59:37;100587.27;;;20.04;100.00
32873;BME280;19224;52.462;16.898;2022-10-30T11:04:50;100597.48;;;20.13;100.00
32873;BME280;19224;52.462;16.898;2022-10-30T11:07:36;100601.32;;;20.10;100.00
32873;BME280;19224;52.462;16.898;2022-10-30T11:09:57;100594.38;;;20.12;100.00
32873;BME280;19224;52.462;16.898;2022-10-30T11:12:34;100601.70;;;20.11;100.00
32873;BME280;19224;52.462;16.898;2022-10-30T11:15:35;100599.84;;;20.12;100.00
32873;BME280;19224;52.462;16.898;2022-10-30T11:18:07;100603.33;;;20.14;100.00
32873;BME280;19224;52.462;16.898;2022-10-30T11:23:45;100602.97;;;20.24;100.00
32873;BME280;19224;52.462;16.898;2022-10-30T11:26:23;100599.09;;;20.26;100.00
32873;BME280;19224;52.462;16.898;2022-10-30T11:29:03;100604.36;;;20.35;100.00
32873;BME280;19224;52.462;16.898;2022-10-30T11:31:42;100600.89;;;20.44;100.00
32873;BME280;19224;52.462;16.898;2022-10-30T11:34:36;100595.91;;;20.54;100.00
32873;BME280;19224;52.462;16.898;2022-10-30T11:37:08;100602.49;;;20.63;100.00
32873;BME280;19224;52.462;16.898;2022-10-30T11:39:39;100597.64;;;20.72;100.00
32873;BME280;19224;52.462;16.898;2022-10-30T11:42:16;100599.75;;;20.74;100.00
32873;BME280;19224;52.462;16.898;2022-10-30T11:44:52;100595.80;;;20.78;100.00
32873;BME280;19224;52.462;16.898;2022-10-30T11:47:35;100598.90;;;20.73;100.00
32873;BME280;19224;52.462;16.898;2022-10-30T11:50:03;100599.02;;;20.72;100.00
32873;BME280;19224;52.462;16.898;2022-10-30T11:52:41;100603.23;;;20.70;100.00
32873;BME280;19224;52.462;16.898;2022-10-30T11:55:32;100593.05;;;20.72;100.00
32873;BME280;19224;52.462;16.898;2022-10-30T11:57:58;100595.39;;;20.77;100.00
32873;BME280;19224;52.462;16.898;2022-10-30T12:00:33;100600.38;;;20.77;100.00
32873;BME280;19224;52.462;16.898;2022-10-30T12:06:29;100597.19;;;20.89;100.00
32873;BME280;19224;52.462;16.898;2022-10-30T12:09:12;100594.81;;;20.95;100.00
32873;BME280;19224;52.462;16.898;2022-10-30T12:11:45;100588.16;;;21.09;100.00
32873;BME280;19224;52.462;16.898;2022-10-30T12:14:24;100589.67;;;21.13;100.00
32873;BME280;19224;52.462;16.898;2022-10-30T12:16:56;100594.15;;;21.14;100.00
32873;BME280;19224;52.462;16.898;2022-10-30T12:19:26;100596.36;;;21.20;100.00
32873;BME280;19224;52.462;16.898;2022-10-30T12:22:00;100596.50;;;21.18;100.00
32873;BME280;19224;52.462;16.898;2022-10-30T12:24:39;100597.36;;;21.19;100.00
32873;BME280;19224;52.462;16.898;2022-10-30T12:27:12;100595.88;;;21.15;100.00
32873;BME280;19224;52.462;16.898;2022-10-30T12:30:04;100592.64;;;21.10;100.00
32873;BME280;19224;52.462;16.898;2022-10-30T12:38:04;100593.67;;;20.92;100.00
32873;BME280;19224;52.462;16.898;2022-10-30T12:40:40;100589.45;;;20.88;100.00
32873;BME280;19224;52.462;16.898;2022-10-30T12:43:21;100591.68;;;20.83;100.00
32873;BME280;19224;52.462;16.898;2022-10-30T12:46:47;100590.31;;;20.78;100.00
32873;BME280;19224;52.462;16.898;2022-10-30T12:48:43;100588.43;;;20.73;100.00
32873;BME280;19224;52.462;16.898;2022-10-30T12:51:26;100585.33;;;20.61;100.00
32873;BME280;19224;52.462;16.898;2022-10-30T12:54:11;100583.70;;;20.58;100.00
32873;BME280;19224;52.462;16.898;2022-10-30T12:56:42;100582.70;;;20.54;100.00
32873;BME280;19224;52.462;16.898;2022-10-30T13:02:14;100572.75;;;20.53;100.00
32873;BME280;19224;52.462;16.898;2022-10-30T13:04:49;100574.27;;;20.46;100.00
32873;BME280;19224;52.462;16.898;2022-10-30T13:07:41;100570.38;;;20.43;100.00
32873;BME280;19224;52.462;16.898;2022-10-30T13:10:38;100568.64;;;20.42;100.00
32873;BME280;19224;52.462;16.898;2022-10-30T13:13:34;100563.94;;;20.33;100.00
32873;BME280;19224;52.462;16.898;2022-10-30T13:16:15;100557.58;;;20.32;100.00
32873;BME280;19224;52.462;16.898;2022-10-30T13:18:42;100554.36;;;20.27;100.00
32873;BME280;19224;52.462;16.898;2022-10-30T13:24:11;100542.89;;;20.22;100.00
32873;BME280;19224;52.462;16.898;2022-10-30T13:26:55;100550.25;;;20.16;100.00
32873;BME280;19224;52.462;16.898;2022-10-30T13:29:47;100546.63;;;20.16;100.00
32873;BME280;19224;52.462;16.898;2022-10-30T13:32:38;100552.09;;;20.16;100.00
32873;BME280;19224;52.462;16.898;2022-10-30T13:44:38;100544.16;;;20.24;100.00
32873;BME280;19224;52.462;16.898;2022-10-30T13:47:45;100546.00;;;20.23;100.00
32873;BME280;19224;52.462;16.898;2022-10-30T13:50:27;100540.89;;;20.19;100.00
32873;BME280;19224;52.462;16.898;2022-10-30T13:52:56;100534.69;;;20.17;100.00
32873;BME280;19224;52.462;16.898;2022-10-30T13:55:36;100538.16;;;20.08;100.00
32873;BME280;19224;52.462;16.898;2022-10-30T13:58:47;100533.52;;;19.97;100.00
32873;BME280;19224;52.462;16.898;2022-10-30T14:01:31;100531.39;;;19.90;100.00
32873;BME280;19224;52.462;16.898;2022-10-30T14:04:30;100533.11;;;19.80;100.00
32873;BME280;19224;52.462;16.898;2022-10-30T14:06:52;100538.05;;;19.75;100.00
32873;BME280;19224;52.462;16.898;2022-10-30T14:09:53;100530.34;;;19.69;100.00
32873;BME280;19224;52.462;16.898;2022-10-30T14:12:46;100529.78;;;19.53;100.00
32873;BME280;19224;52.462;16.898;2022-10-30T14:15:32;100529.28;;;19.48;100.00
32873;BME280;19224;52.462;16.898;2022-10-30T14:18:44;100528.37;;;19.42;100.00
32873;BME280;19224;52.462;16.898;2022-10-30T14:24:53;100520.89;;;19.28;100.00
32873;BME280;19224;52.462;16.898;2022-10-30T14:27:31;100516.53;;;19.25;100.00
32873;BME280;19224;52.462;16.898;2022-10-30T14:30:18;100517.41;;;19.31;100.00
32873;BME280;19224;52.462;16.898;2022-10-30T14:32:51;100525.16;;;19.43;100.00
32873;BME280;19224;52.462;16.898;2022-10-30T14:35:37;100520.59;;;19.54;100.00
32873;BME280;19224;52.462;16.898;2022-10-30T14:43:26;100522.36;;;19.66;100.00
32873;BME280;19224;52.462;16.898;2022-10-30T14:46:03;100522.88;;;19.65;100.00
32873;BME280;19224;52.462;16.898;2022-10-30T14:51:58;100526.99;;;19.71;100.00
32873;BME280;19224;52.462;16.898;2022-10-30T14:54:46;100520.50;;;19.61;100.00
32873;BME280;19224;52.462;16.898;2022-10-30T14:57:12;100530.41;;;19.51;100.00
32873;BME280;19224;52.462;16.898;2022-10-30T14:59:35;100525.05;;;19.44;100.00